createdAt,value
2019-01-19T00:00:20.832Z,1.80
2019-01-19T00:03:42.448Z,2.27
2019-01-19T00:07:15.327Z,2.12
2019-01-19T00:10:35.336Z,2.40
2019-01-19T00:13:47.126Z,2.30
2019-01-19T00:16:53.112Z,1.72
2019-01-19T00:20:22.204Z,1.62
2019-01-19T00:24:05.852Z,1.90
2019-01-19T00:27:26.308Z,1.77
2019-01-19T00:30:47.693Z,1.75
2019-01-19T00:33:59.061Z,2.20
2019-01-19T00:37:09.570Z,1.67
2019-01-19T00:40:31.853Z,1.67
2019-01-19T00:43:24.011Z,2.20
2019-01-19T00:46:31.696Z,2.60
2019-01-19T00:49:14.824Z,2.00
2019-01-19T00:52:39.983Z,1.80
2019-01-19T00:56:01.555Z,1.72
2019-01-19T00:58:56.518Z,1.70
2019-01-19T01:01:46.816Z,2.90
2019-01-19T01:05:07.350Z,1.90
2019-01-19T01:09:09.033Z,2.02
2019-01-19T01:12:09.208Z,2.27
2019-01-19T01:15:39.749Z,2.33
2019-01-19T01:18:26.325Z,1.80
2019-01-19T01:21:26.602Z,2.37
2019-01-19T01:24:47.309Z,1.98
2019-01-19T01:27:50.907Z,2.25
2019-01-19T01:30:59.242Z,2.10
2019-01-19T01:34:19.702Z,2.67
2019-01-19T01:37:42.856Z,3.40
2019-01-19T01:41:01.254Z,2.80
2019-01-19T01:44:00.093Z,3.10
2019-01-19T01:47:27.997Z,3.58
2019-01-19T01:50:20.875Z,4.50
2019-01-19T01:53:35.987Z,4.42
2019-01-19T01:56:13.798Z,4.42
2019-01-19T01:59:07.617Z,4.90
2019-01-19T02:02:32.194Z,4.80
2019-01-19T02:05:40.266Z,4.70
2019-01-19T02:08:37.378Z,4.10
2019-01-19T02:11:43.216Z,3.67
2019-01-19T02:14:40.901Z,3.65
2019-01-19T02:18:15.554Z,3.62
2019-01-19T02:21:44.710Z,3.62
2019-01-19T02:25:08.664Z,3.67
2019-01-19T02:28:34.277Z,4.37
2019-01-19T02:31:48.081Z,4.45
2019-01-19T02:34:37.714Z,4.22
2019-01-19T02:37:35.270Z,4.20
2019-01-19T02:41:01.535Z,3.72
2019-01-19T02:44:03.767Z,3.45
2019-01-19T02:47:25.203Z,2.92
2019-01-19T02:50:47.220Z,2.60
2019-01-19T02:54:03.132Z,2.37
2019-01-19T02:57:05.676Z,2.02
2019-01-19T03:00:23.075Z,2.33
2019-01-19T03:03:25.484Z,2.30
2019-01-19T03:06:34.929Z,3.58
2019-01-19T03:09:46.761Z,3.30
2019-01-19T03:12:58.036Z,3.50
2019-01-19T03:15:52.841Z,3.90
2019-01-19T03:18:49.993Z,3.42
2019-01-19T03:22:02.789Z,3.22
2019-01-19T03:25:01.982Z,3.70
2019-01-19T03:28:19.857Z,2.62
2019-01-19T03:31:45.465Z,2.85
2019-01-19T03:34:47.428Z,3.15
2019-01-19T03:37:34.670Z,3.52
2019-01-19T03:40:40.801Z,3.30
2019-01-19T03:44:20.050Z,3.08
2019-01-19T03:47:31.445Z,3.08
2019-01-19T03:50:52.533Z,3.52
2019-01-19T03:53:58.352Z,2.85
2019-01-19T03:57:05.709Z,2.47
2019-01-19T04:00:34.494Z,2.20
2019-01-19T04:03:38.894Z,2.05
2019-01-19T04:06:38.232Z,1.82
2019-01-19T04:09:46.001Z,1.45
2019-01-19T04:13:19.256Z,2.05
2019-01-19T04:16:33.310Z,1.92
2019-01-19T04:19:50.871Z,1.50
2019-01-19T04:22:55.592Z,1.70
2019-01-19T04:26:29.725Z,2.17
2019-01-19T04:29:01.626Z,2.27
2019-01-19T04:31:33.245Z,2.30
2019-01-19T04:34:05.951Z,1.80
2019-01-19T04:36:37.439Z,2.25
2019-01-19T04:39:11.806Z,1.87
2019-01-19T04:41:43.672Z,2.27
2019-01-19T04:44:15.334Z,2.30
2019-01-19T04:46:47.546Z,2.20
2019-01-19T04:49:19.310Z,2.25
2019-01-19T04:51:51.246Z,1.55
2019-01-19T04:54:23.094Z,1.55
2019-01-19T04:56:55.206Z,1.57
2019-01-19T04:59:26.768Z,1.80
2019-01-19T05:01:58.370Z,1.55
2019-01-19T05:04:30.309Z,1.95
2019-01-19T05:07:01.946Z,1.70
2019-01-19T05:09:33.820Z,1.72
2019-01-19T05:12:05.957Z,1.37
2019-01-19T05:14:37.680Z,1.77
2019-01-19T05:17:09.275Z,1.50
2019-01-19T05:19:41.226Z,2.08
2019-01-19T05:22:13.228Z,1.65
2019-01-19T05:24:44.885Z,2.40
2019-01-19T05:27:16.836Z,2.12
2019-01-19T05:29:48.474Z,2.52
2019-01-19T05:32:20.518Z,2.47
2019-01-19T05:34:52.361Z,3.47
2019-01-19T05:37:23.959Z,3.30
2019-01-19T05:39:56.335Z,3.55
2019-01-19T05:42:27.777Z,3.70
2019-01-19T05:44:59.827Z,3.37
2019-01-19T05:47:31.757Z,3.00
2019-01-19T05:50:03.403Z,3.72
2019-01-19T05:52:35.436Z,4.22
2019-01-19T05:55:08.073Z,3.80
2019-01-19T05:57:39.358Z,3.72
2019-01-19T06:00:16.080Z,4.15
2019-01-19T06:02:47.814Z,3.02
2019-01-19T06:05:20.626Z,3.45
2019-01-19T06:07:51.727Z,3.62
2019-01-19T06:10:23.995Z,2.80
2019-01-19T06:12:55.918Z,2.75
2019-01-19T06:15:27.246Z,2.58
2019-01-19T06:17:59.246Z,2.02
2019-01-19T06:20:31.253Z,1.77
2019-01-19T06:23:02.982Z,1.55
2019-01-19T06:25:34.518Z,2.10
2019-01-19T06:28:07.419Z,1.50
2019-01-19T06:30:39.402Z,1.70
2019-01-19T06:33:11.223Z,1.87
2019-01-19T06:35:42.884Z,1.42
2019-01-19T06:38:14.336Z,2.50
2019-01-19T06:40:45.817Z,2.25
2019-01-19T06:43:18.086Z,2.60
2019-01-19T06:45:50.274Z,2.50
2019-01-19T06:48:21.383Z,3.05
2019-01-19T06:50:52.408Z,2.83
2019-01-19T06:53:23.785Z,3.72
2019-01-19T06:55:55.712Z,2.60
2019-01-19T06:58:27.446Z,2.50
2019-01-19T07:00:59.323Z,2.58
2019-01-19T07:03:31.338Z,2.47
2019-01-19T07:06:02.947Z,2.60
2019-01-19T07:08:34.865Z,2.95
2019-01-19T07:11:06.285Z,2.42
2019-01-19T07:13:38.525Z,2.98
2019-01-19T07:16:10.158Z,2.05
2019-01-19T07:18:41.974Z,3.15
2019-01-19T07:21:14.020Z,2.95
2019-01-19T07:23:45.744Z,3.17
2019-01-19T07:26:17.261Z,3.70
2019-01-19T07:28:48.697Z,3.05
2019-01-19T07:31:19.986Z,2.65
2019-01-19T07:33:51.753Z,2.67
2019-01-19T07:36:23.707Z,2.90
2019-01-19T07:38:55.112Z,2.65
2019-01-19T07:41:32.770Z,2.80
2019-01-19T07:44:09.345Z,3.20
2019-01-19T07:46:56.133Z,6.33
2019-01-19T07:49:32.472Z,8.13
2019-01-19T07:52:04.569Z,11.33
2019-01-19T07:54:36.570Z,13.10
2019-01-19T07:57:08.298Z,7.60
2019-01-19T07:59:41.527Z,6.17
2019-01-19T08:02:14.327Z,5.00
2019-01-19T08:04:46.275Z,4.50
2019-01-19T08:07:18.074Z,4.53
2019-01-19T08:09:49.764Z,5.17
2019-01-19T08:12:21.706Z,7.42
2019-01-19T08:14:53.873Z,12.60
2019-01-19T08:17:26.142Z,14.03
2019-01-19T08:19:58.099Z,10.93
2019-01-19T08:22:29.833Z,10.65
2019-01-19T08:25:01.403Z,9.53
2019-01-19T08:27:32.825Z,6.42
2019-01-19T08:30:06.289Z,5.78
2019-01-19T08:32:38.050Z,4.10
2019-01-19T08:35:10.243Z,3.22
2019-01-19T08:37:41.299Z,1.98
2019-01-19T08:40:16.516Z,1.70
2019-01-19T08:42:51.370Z,1.37
2019-01-19T08:45:22.915Z,1.47
2019-01-19T08:47:54.704Z,1.20
2019-01-19T08:50:26.557Z,1.40
2019-01-19T08:52:57.819Z,3.12
2019-01-19T08:55:29.208Z,3.45
2019-01-19T08:58:00.461Z,3.37
2019-01-19T09:00:33.037Z,4.20
2019-01-19T09:03:04.885Z,2.62
2019-01-19T09:05:37.783Z,1.90
2019-01-19T09:08:09.776Z,1.80
2019-01-19T09:10:41.176Z,2.00
2019-01-19T09:13:13.309Z,2.52
2019-01-19T09:15:44.551Z,2.30
2019-01-19T09:18:16.290Z,2.05
2019-01-19T09:20:47.824Z,1.80
2019-01-19T09:23:24.192Z,1.60
2019-01-19T09:25:56.169Z,1.42
2019-01-19T09:28:27.852Z,1.25
2019-01-19T09:30:59.171Z,1.35
2019-01-19T09:33:30.699Z,1.20
2019-01-19T09:36:02.125Z,1.40
2019-01-19T09:38:33.628Z,1.65
2019-01-19T09:41:05.507Z,1.20
2019-01-19T09:43:37.143Z,1.20
2019-01-19T09:46:08.905Z,1.30
2019-01-19T09:48:41.222Z,1.02
2019-01-19T09:51:13.607Z,1.15
2019-01-19T09:53:45.165Z,1.20
2019-01-19T09:56:18.605Z,1.10
2019-01-19T09:58:49.896Z,1.02
2019-01-19T10:01:21.280Z,1.27
2019-01-19T10:03:54.175Z,1.20
2019-01-19T10:06:25.824Z,1.37
2019-01-19T10:08:57.213Z,1.75
2019-01-19T10:11:28.679Z,2.05
2019-01-19T10:13:59.987Z,1.90
2019-01-19T10:16:31.684Z,1.98
2019-01-19T10:19:03.419Z,1.70
2019-01-19T10:21:36.196Z,1.90
2019-01-19T10:24:07.810Z,1.95
2019-01-19T10:26:38.883Z,1.55
2019-01-19T10:29:11.706Z,1.80
2019-01-19T10:31:43.047Z,1.50
2019-01-19T10:34:14.586Z,2.58
2019-01-19T10:36:46.652Z,5.12
2019-01-19T10:39:18.376Z,3.60
2019-01-19T10:41:50.476Z,2.95
2019-01-19T10:44:22.020Z,2.92
2019-01-19T10:46:53.623Z,2.70
2019-01-19T10:49:25.606Z,3.35
2019-01-19T10:51:59.461Z,4.20
2019-01-19T10:54:30.758Z,6.95
2019-01-19T10:57:02.297Z,6.25
2019-01-19T10:59:34.499Z,5.15
2019-01-19T11:02:06.092Z,5.45
2019-01-19T11:04:37.677Z,4.78
2019-01-19T11:07:09.532Z,4.05
2019-01-19T11:09:41.327Z,4.25
2019-01-19T11:12:13.046Z,5.10
2019-01-19T11:14:44.472Z,3.60
2019-01-19T11:17:16.150Z,3.65
2019-01-19T11:19:47.843Z,3.80
2019-01-19T11:22:19.459Z,3.22
2019-01-19T11:24:51.012Z,2.55
2019-01-19T11:27:22.784Z,2.58
2019-01-19T11:29:54.204Z,2.45
2019-01-19T11:32:26.179Z,3.65
2019-01-19T11:34:58.056Z,2.90
2019-01-19T11:37:29.459Z,3.00
2019-01-19T11:40:00.916Z,3.65
2019-01-19T11:42:32.170Z,3.40
2019-01-19T11:45:03.836Z,3.35
2019-01-19T11:47:35.397Z,3.00
2019-01-19T11:50:07.476Z,3.90
2019-01-19T11:52:38.820Z,3.20
2019-01-19T11:55:12.488Z,3.47
2019-01-19T11:57:44.051Z,4.00
2019-01-19T12:00:19.454Z,4.92
2019-01-19T12:02:51.434Z,3.77
2019-01-19T12:05:22.899Z,4.08
2019-01-19T12:07:54.691Z,4.22
2019-01-19T12:10:28.410Z,4.78
2019-01-19T12:13:06.312Z,4.30
2019-01-19T12:15:38.148Z,4.83
2019-01-19T12:18:10.932Z,4.55
2019-01-19T12:20:48.899Z,5.05
2019-01-19T12:23:20.054Z,4.08
2019-01-19T12:25:51.871Z,4.25
2019-01-19T12:28:23.765Z,3.50
2019-01-19T12:30:55.547Z,3.87
2019-01-19T12:33:28.080Z,3.45
2019-01-19T12:35:59.453Z,3.87
2019-01-19T12:38:31.362Z,3.72
2019-01-19T12:41:02.995Z,5.40
2019-01-19T12:43:36.151Z,4.33
2019-01-19T12:46:10.622Z,4.50
2019-01-19T12:48:42.006Z,4.45
2019-01-19T12:51:15.039Z,4.85
2019-01-19T12:53:46.341Z,4.08
2019-01-19T12:56:24.598Z,4.40
2019-01-19T12:58:59.865Z,5.00
2019-01-19T13:01:31.425Z,5.00
2019-01-19T13:04:02.722Z,4.78
2019-01-19T13:06:56.085Z,4.47
2019-01-19T13:09:44.078Z,4.25
2019-01-19T13:12:41.320Z,3.92
2019-01-19T13:16:05.835Z,4.28
2019-01-19T13:19:25.485Z,3.75
2019-01-19T13:23:15.817Z,3.85
2019-01-19T13:26:45.890Z,3.40
2019-01-19T13:30:29.687Z,4.30
2019-01-19T13:33:13.216Z,4.08
2019-01-19T13:36:36.680Z,4.45
2019-01-19T13:39:41.290Z,4.47
2019-01-19T13:42:46.280Z,4.22
2019-01-19T13:45:54.355Z,4.35
2019-01-19T13:48:54.858Z,4.08
2019-01-19T13:51:39.212Z,4.33
2019-01-19T13:55:14.628Z,3.67
2019-01-19T13:58:10.050Z,4.15
2019-01-19T14:02:01.956Z,3.05
2019-01-19T14:05:04.675Z,2.50
2019-01-19T14:08:18.781Z,3.17
2019-01-19T14:11:45.193Z,3.30
2019-01-19T14:14:54.784Z,2.80
2019-01-19T14:18:01.840Z,2.37
2019-01-19T14:21:27.258Z,2.75
2019-01-19T14:24:58.925Z,3.50
2019-01-19T14:28:13.370Z,2.17
2019-01-19T14:31:15.612Z,2.60
2019-01-19T14:34:40.255Z,3.08
2019-01-19T14:38:06.111Z,2.72
2019-01-19T14:41:36.321Z,2.65
2019-01-19T14:45:15.480Z,2.15
2019-01-19T14:48:21.622Z,2.70
2019-01-19T14:51:27.544Z,2.10
2019-01-19T14:54:41.170Z,2.30
2019-01-19T14:57:43.353Z,2.98
2019-01-19T15:00:36.548Z,3.20
2019-01-19T15:03:58.606Z,3.45
2019-01-19T15:07:31.373Z,3.40
2019-01-19T15:11:01.736Z,2.92
2019-01-19T15:14:26.251Z,2.77
2019-01-19T15:18:18.900Z,2.50
2019-01-19T15:21:44.430Z,3.15
2019-01-19T15:24:36.943Z,2.75
2019-01-19T15:28:01.322Z,3.62
2019-01-19T15:31:20.840Z,2.80
2019-01-19T15:35:14.517Z,3.20
2019-01-19T15:38:12.690Z,3.00
2019-01-19T15:41:33.247Z,3.92
2019-01-19T15:45:07.111Z,3.60
2019-01-19T15:48:43.722Z,4.50
2019-01-19T15:52:15.127Z,4.55
2019-01-19T15:55:32.886Z,6.35
2019-01-19T15:58:39.280Z,9.58
2019-01-19T16:02:21.850Z,7.35
2019-01-19T16:05:32.367Z,6.90
2019-01-19T16:08:51.792Z,5.70
2019-01-19T16:11:59.513Z,6.58
2019-01-19T16:15:34.602Z,5.97
2019-01-19T16:18:50.187Z,5.50
2019-01-19T16:22:11.488Z,5.47
2019-01-19T16:25:22.370Z,5.10
2019-01-19T16:28:31.265Z,4.65
2019-01-19T16:31:52.578Z,5.25
2019-01-19T16:35:07.332Z,4.95
2019-01-19T16:38:44.969Z,5.08
2019-01-19T16:42:19.142Z,5.33
2019-01-19T16:45:27.503Z,5.33
2019-01-19T16:48:57.721Z,5.35
2019-01-19T16:52:20.903Z,4.83
2019-01-19T16:55:59.827Z,6.05
2019-01-19T16:59:08.176Z,6.45
2019-01-19T17:02:16.363Z,10.78
2019-01-19T17:05:54.489Z,10.30
2019-01-19T17:09:07.109Z,8.55
2019-01-19T17:12:23.589Z,9.38
2019-01-19T17:15:49.493Z,11.20
2019-01-19T17:19:03.188Z,10.48
2019-01-19T17:31:25.721Z,7.45
2019-01-19T17:34:48.418Z,8.78
2019-01-19T17:37:41.387Z,8.08
2019-01-19T17:41:21.338Z,6.85
2019-01-19T17:44:26.646Z,7.35
2019-01-19T17:47:39.081Z,6.85
2019-01-19T17:50:58.620Z,7.60
2019-01-19T17:54:19.124Z,7.15
2019-01-19T17:57:15.219Z,10.55
2019-01-19T18:00:16.243Z,16.65
2019-01-19T18:03:22.794Z,15.40
2019-01-19T18:06:34.991Z,13.45
2019-01-19T18:10:09.809Z,11.73
2019-01-19T18:13:05.060Z,10.93
2019-01-19T18:16:05.251Z,10.40
2019-01-19T18:19:25.679Z,10.78
2019-01-19T18:22:42.227Z,12.18
2019-01-19T18:25:59.607Z,9.93
2019-01-19T18:29:23.590Z,9.85
2019-01-19T18:32:34.154Z,9.13
2019-01-19T18:35:50.288Z,7.20
2019-01-19T18:39:22.926Z,7.40
2019-01-19T18:42:36.942Z,7.05
2019-01-19T18:45:47.017Z,7.47
2019-01-19T18:49:43.184Z,7.33
2019-01-19T18:53:08.361Z,8.48
2019-01-19T18:56:41.776Z,8.15
2019-01-19T18:59:29.372Z,8.58
2019-01-19T19:03:21.558Z,8.05
2019-01-19T19:06:38.549Z,7.28
2019-01-19T19:10:13.893Z,8.43
2019-01-19T19:13:12.900Z,8.15
2019-01-19T19:16:57.378Z,8.63
2019-01-19T19:20:02.110Z,8.60
2019-01-19T19:23:36.741Z,9.10
2019-01-19T19:26:57.049Z,7.40
2019-01-19T19:30:21.793Z,7.62
2019-01-19T19:33:49.183Z,7.12
2019-01-19T19:37:08.173Z,8.08
2019-01-19T19:40:45.048Z,7.75
2019-01-19T19:43:58.226Z,8.30
2019-01-19T19:47:12.776Z,8.38
2019-01-19T19:50:46.626Z,8.23
2019-01-19T19:53:18.382Z,8.88
2019-01-19T19:55:47.715Z,9.48
2019-01-19T19:58:26.703Z,8.98
2019-01-19T20:00:58.301Z,9.35
2019-01-19T20:03:29.886Z,9.18
2019-01-19T20:06:01.600Z,9.18
2019-01-19T20:08:33.044Z,9.70
2019-01-19T20:11:05.930Z,9.20
2019-01-19T20:13:37.886Z,9.85
2019-01-19T20:16:10.160Z,10.30
2019-01-19T20:18:42.224Z,9.78
2019-01-19T20:21:14.147Z,10.63
2019-01-19T20:23:46.289Z,9.95
2019-01-19T20:26:17.630Z,10.30
2019-01-19T20:28:48.908Z,11.18
2019-01-19T20:31:20.802Z,11.25
2019-01-19T20:33:52.148Z,11.35
2019-01-19T20:36:23.511Z,11.03
2019-01-19T20:38:54.873Z,15.75
2019-01-19T20:41:27.259Z,13.72
2019-01-19T20:43:59.088Z,14.15
2019-01-19T20:46:30.187Z,13.70
2019-01-19T20:49:02.082Z,11.55
2019-01-19T20:51:34.398Z,12.47
2019-01-19T20:54:06.048Z,12.05
2019-01-19T20:56:40.139Z,11.05
2019-01-19T20:59:12.101Z,15.80
2019-01-19T21:01:43.641Z,11.55
2019-01-19T21:04:15.817Z,11.08
2019-01-19T21:06:55.165Z,12.60
2019-01-19T21:09:26.474Z,13.08
2019-01-19T21:11:58.135Z,14.10
2019-01-19T21:14:29.793Z,14.63
2019-01-19T21:17:01.640Z,13.18
2019-01-19T21:19:33.303Z,14.13
2019-01-19T21:22:05.288Z,12.93
2019-01-19T21:24:40.095Z,10.35
2019-01-19T21:27:11.968Z,10.88
2019-01-19T21:29:44.085Z,9.50
2019-01-19T21:32:15.627Z,8.63
2019-01-19T21:34:47.194Z,9.83
2019-01-19T21:37:21.291Z,9.88
2019-01-19T21:39:52.870Z,12.18
2019-01-19T21:42:24.715Z,13.15
2019-01-19T21:44:56.610Z,11.08
2019-01-19T21:47:28.567Z,11.22
2019-01-19T21:50:00.170Z,10.72
2019-01-19T21:52:32.016Z,10.45
2019-01-19T21:55:05.215Z,10.08
2019-01-19T21:57:37.321Z,11.85
2019-01-19T22:00:13.107Z,12.95
2019-01-19T22:02:44.707Z,11.20
2019-01-19T22:05:16.631Z,7.95
2019-01-19T22:07:48.328Z,7.47
2019-01-19T22:10:20.232Z,7.45
2019-01-19T22:12:52.281Z,7.22
2019-01-19T22:15:24.191Z,6.50
2019-01-19T22:17:56.192Z,6.83
2019-01-19T22:20:27.869Z,6.62
2019-01-19T22:22:59.513Z,6.12
2019-01-19T22:25:31.195Z,7.12
2019-01-19T22:28:02.490Z,7.60
2019-01-19T22:30:33.752Z,13.43
2019-01-19T22:33:05.360Z,12.33
2019-01-19T22:35:37.505Z,10.50
2019-01-19T22:38:09.101Z,9.65
2019-01-19T22:40:41.309Z,9.50
2019-01-19T22:43:18.597Z,9.60
2019-01-19T22:45:49.959Z,9.08
2019-01-19T22:48:21.294Z,8.58
2019-01-19T22:50:52.866Z,8.38
2019-01-19T22:53:24.556Z,9.20
2019-01-19T22:55:55.838Z,8.68
2019-01-19T22:58:27.192Z,7.95
2019-01-19T23:02:00.246Z,7.03
2019-01-19T23:04:37.777Z,6.72
2019-01-19T23:07:16.226Z,6.53
2019-01-19T23:09:49.082Z,6.60
2019-01-19T23:12:22.427Z,6.08
2019-01-19T23:15:00.289Z,5.87
2019-01-19T23:17:32.470Z,5.22
2019-01-19T23:20:04.954Z,5.78
2019-01-19T23:22:36.567Z,5.75
2019-01-19T23:25:08.016Z,6.20
2019-01-19T23:27:39.870Z,5.85
2019-01-19T23:30:11.562Z,5.65
2019-01-19T23:32:42.846Z,5.83
2019-01-19T23:35:14.526Z,4.78
2019-01-19T23:37:46.701Z,5.47
2019-01-19T23:40:18.612Z,5.92
2019-01-19T23:42:50.654Z,5.85
2019-01-19T23:45:22.739Z,6.00
2019-01-19T23:47:54.805Z,6.33
2019-01-19T23:50:27.285Z,7.20
2019-01-19T23:52:58.820Z,6.95
2019-01-19T23:55:32.198Z,7.37
2019-01-19T23:58:03.801Z,8.00
